sensor_id;sensor_type;location;lat;lon;timestamp;pressure;altitude;pressure_sealevel;temperature;humidity
16525;BME280;8375;33.594;-117.718;2023-07-09T00:02:23;99752.44;;;24.19;56.49
16525;BME280;8375;33.594;-117.718;2023-07-09T00:04:52;99747.22;;;23.80;56.70
16525;BME280;8375;33.594;-117.718;2023-07-09T00:07:27;99749.88;;;23.54;57.48
16525;BME280;8375;33.594;-117.718;2023-07-09T00:09:56;99745.66;;;23.72;57.50
16525;BME280;8375;33.594;-117.718;2023-07-09T00:12:26;99742.28;;;23.90;57.31
16525;BME280;8375;33.594;-117.718;2023-07-09T00:14:54;99739.16;;;24.00;56.50
16525;BME280;8375;33.594;-117.718;2023-07-09T00:17:27;99732.94;;;23.81;56.44
16525;BME280;8375;33.594;-117.718;2023-07-09T00:19:57;99734.66;;;23.75;57.33
16525;BME280;8375;33.594;-117.718;2023-07-09T00:22:27;99731.94;;;23.82;57.69
16525;BME280;8375;33.594;-117.718;2023-07-09T00:24:56;99728.00;;;23.91;56.70
16525;BME280;8375;33.594;-117.718;2023-07-09T00:27:27;99730.31;;;23.81;56.97
16525;BME280;8375;33.594;-117.718;2023-07-09T00:29:57;99726.38;;;23.90;57.02
16525;BME280;8375;33.594;-117.718;2023-07-09T00:32:25;99727.75;;;23.67;57.00
16525;BME280;8375;33.594;-117.718;2023-07-09T00:34:54;99732.97;;;23.55;57.83
16525;BME280;8375;33.594;-117.718;2023-07-09T00:37:26;99724.72;;;23.38;58.00
16525;BME280;8375;33.594;-117.718;2023-07-09T00:39:55;99719.31;;;23.26;58.17
16525;BME280;8375;33.594;-117.718;2023-07-09T00:42:24;99720.06;;;23.34;59.14
16525;BME280;8375;33.594;-117.718;2023-07-09T00:44:53;99721.00;;;23.46;58.78
16525;BME280;8375;33.594;-117.718;2023-07-09T00:47:25;99716.63;;;23.58;58.20
16525;BME280;8375;33.594;-117.718;2023-07-09T00:50:04;99718.19;;;23.66;57.34
16525;BME280;8375;33.594;-117.718;2023-07-09T00:52:40;99711.38;;;23.77;57.48
16525;BME280;8375;33.594;-117.718;2023-07-09T00:55:15;99713.44;;;23.75;57.62
16525;BME280;8375;33.594;-117.718;2023-07-09T00:57:47;99707.59;;;23.41;57.69
16525;BME280;8375;33.594;-117.718;2023-07-09T01:00:25;99712.75;;;23.29;58.18
16525;BME280;8375;33.594;-117.718;2023-07-09T01:02:56;99704.06;;;23.15;58.48
16525;BME280;8375;33.594;-117.718;2023-07-09T01:05:26;99703.38;;;22.94;59.39
16525;BME280;8375;33.594;-117.718;2023-07-09T01:07:57;99700.91;;;22.99;59.91
16525;BME280;8375;33.594;-117.718;2023-07-09T01:10:26;99702.88;;;23.11;59.41
16525;BME280;8375;33.594;-117.718;2023-07-09T01:12:54;99700.84;;;23.13;59.27
16525;BME280;8375;33.594;-117.718;2023-07-09T01:15:23;99686.97;;;22.79;60.18
16525;BME280;8375;33.594;-117.718;2023-07-09T01:17:52;99696.06;;;22.37;61.77
16525;BME280;8375;33.594;-117.718;2023-07-09T01:20:21;99694.28;;;22.11;63.31
16525;BME280;8375;33.594;-117.718;2023-07-09T01:22:52;99690.66;;;22.05;62.65
16525;BME280;8375;33.594;-117.718;2023-07-09T01:25:23;99686.56;;;22.09;62.84
16525;BME280;8375;33.594;-117.718;2023-07-09T01:27:52;99692.22;;;22.33;62.72
16525;BME280;8375;33.594;-117.718;2023-07-09T01:30:23;99692.63;;;22.30;62.62
16525;BME280;8375;33.594;-117.718;2023-07-09T01:32:57;99686.13;;;22.19;63.25
16525;BME280;8375;33.594;-117.718;2023-07-09T01:35:26;99694.25;;;22.31;63.17
16525;BME280;8375;33.594;-117.718;2023-07-09T01:37:57;99691.19;;;22.48;62.78
16525;BME280;8375;33.594;-117.718;2023-07-09T01:40:26;99694.19;;;22.51;62.01
16525;BME280;8375;33.594;-117.718;2023-07-09T01:42:57;99694.97;;;22.59;61.66
16525;BME280;8375;33.594;-117.718;2023-07-09T01:45:26;99697.44;;;22.60;61.54
16525;BME280;8375;33.594;-117.718;2023-07-09T01:47:55;99698.03;;;22.55;61.50
16525;BME280;8375;33.594;-117.718;2023-07-09T01:50:24;99707.00;;;22.54;61.52
16525;BME280;8375;33.594;-117.718;2023-07-09T01:52:53;99703.38;;;22.49;61.48
16525;BME280;8375;33.594;-117.718;2023-07-09T01:55:25;99701.72;;;22.41;62.08
16525;BME280;8375;33.594;-117.718;2023-07-09T01:57:54;99706.03;;;22.35;62.63
16525;BME280;8375;33.594;-117.718;2023-07-09T02:00:23;99707.66;;;22.30;62.59
16525;BME280;8375;33.594;-117.718;2023-07-09T02:02:51;99715.41;;;22.24;62.38
16525;BME280;8375;33.594;-117.718;2023-07-09T02:05:21;99710.31;;;22.16;62.60
16525;BME280;8375;33.594;-117.718;2023-07-09T02:07:50;99718.28;;;22.03;62.66
16525;BME280;8375;33.594;-117.718;2023-07-09T02:10:19;99710.38;;;21.96;62.84
16525;BME280;8375;33.594;-117.718;2023-07-09T02:12:49;99727.44;;;21.87;63.24
16525;BME280;8375;33.594;-117.718;2023-07-09T02:15:18;99724.63;;;21.68;63.31
16525;BME280;8375;33.594;-117.718;2023-07-09T02:17:47;99726.19;;;21.56;63.96
16525;BME280;8375;33.594;-117.718;2023-07-09T02:20:15;99729.22;;;21.46;64.23
16525;BME280;8375;33.594;-117.718;2023-07-09T02:22:45;99727.19;;;21.28;64.95
16525;BME280;8375;33.594;-117.718;2023-07-09T02:25:14;99732.78;;;21.11;65.55
16525;BME280;8375;33.594;-117.718;2023-07-09T02:27:43;99736.22;;;20.98;66.08
16525;BME280;8375;33.594;-117.718;2023-07-09T02:30:13;99734.31;;;20.85;66.85
16525;BME280;8375;33.594;-117.718;2023-07-09T02:32:42;99729.75;;;20.65;67.60
16525;BME280;8375;33.594;-117.718;2023-07-09T02:35:10;99733.16;;;20.59;67.57
16525;BME280;8375;33.594;-117.718;2023-07-09T02:37:39;99738.13;;;20.41;68.57
16525;BME280;8375;33.594;-117.718;2023-07-09T02:40:09;99736.91;;;20.36;68.83
16525;BME280;8375;33.594;-117.718;2023-07-09T02:42:38;99741.69;;;20.19;69.53
16525;BME280;8375;33.594;-117.718;2023-07-09T02:45:07;99744.41;;;20.04;70.46
16525;BME280;8375;33.594;-117.718;2023-07-09T02:47:37;99740.72;;;19.99;70.87
16525;BME280;8375;33.594;-117.718;2023-07-09T02:50:07;99750.19;;;19.93;71.62
16525;BME280;8375;33.594;-117.718;2023-07-09T02:52:36;99749.50;;;19.84;72.27
16525;BME280;8375;33.594;-117.718;2023-07-09T02:55:05;99754.31;;;19.81;72.34
16525;BME280;8375;33.594;-117.718;2023-07-09T02:57:34;99759.91;;;19.71;72.67
16525;BME280;8375;33.594;-117.718;2023-07-09T03:00:02;99755.56;;;19.63;73.71
16525;BME280;8375;33.594;-117.718;2023-07-09T03:02:32;99757.41;;;19.62;75.47
16525;BME280;8375;33.594;-117.718;2023-07-09T03:05:03;99759.53;;;19.74;76.37
16525;BME280;8375;33.594;-117.718;2023-07-09T03:07:32;99761.97;;;19.75;74.95
16525;BME280;8375;33.594;-117.718;2023-07-09T03:10:00;99762.72;;;19.69;74.68
16525;BME280;8375;33.594;-117.718;2023-07-09T03:12:29;99757.69;;;19.74;75.53
16525;BME280;8375;33.594;-117.718;2023-07-09T03:14:57;99764.78;;;19.74;74.99
16525;BME280;8375;33.594;-117.718;2023-07-09T03:17:26;99772.88;;;19.72;75.23
16525;BME280;8375;33.594;-117.718;2023-07-09T03:19:55;99769.84;;;19.75;75.56
16525;BME280;8375;33.594;-117.718;2023-07-09T03:22:25;99773.56;;;19.81;74.96
16525;BME280;8375;33.594;-117.718;2023-07-09T03:24:54;99770.69;;;19.76;74.51
16525;BME280;8375;33.594;-117.718;2023-07-09T03:27:22;99782.66;;;19.78;74.56
16525;BME280;8375;33.594;-117.718;2023-07-09T03:29:51;99783.59;;;19.71;74.50
16525;BME280;8375;33.594;-117.718;2023-07-09T03:32:20;99787.41;;;19.68;74.86
16525;BME280;8375;33.594;-117.718;2023-07-09T03:34:49;99791.25;;;19.66;74.88
16525;BME280;8375;33.594;-117.718;2023-07-09T03:37:19;99785.72;;;19.60;75.53
16525;BME280;8375;33.594;-117.718;2023-07-09T03:39:49;99779.84;;;19.58;75.93
16525;BME280;8375;33.594;-117.718;2023-07-09T03:42:18;99785.22;;;19.50;76.26
16525;BME280;8375;33.594;-117.718;2023-07-09T03:44:47;99790.03;;;19.46;76.46
16525;BME280;8375;33.594;-117.718;2023-07-09T03:47:15;99797.25;;;19.38;76.87
16525;BME280;8375;33.594;-117.718;2023-07-09T03:49:44;99788.63;;;19.29;76.97
16525;BME280;8375;33.594;-117.718;2023-07-09T03:52:13;99785.84;;;19.15;77.44
16525;BME280;8375;33.594;-117.718;2023-07-09T03:54:42;99798.94;;;19.09;78.49
16525;BME280;8375;33.594;-117.718;2023-07-09T03:57:13;99790.22;;;19.08;78.76
16525;BME280;8375;33.594;-117.718;2023-07-09T03:59:42;99798.09;;;18.93;78.83
16525;BME280;8375;33.594;-117.718;2023-07-09T04:02:11;99804.38;;;18.92;79.47
16525;BME280;8375;33.594;-117.718;2023-07-09T04:04:39;99805.53;;;18.89;79.68
16525;BME280;8375;33.594;-117.718;2023-07-09T04:07:08;99807.63;;;18.79;80.03
16525;BME280;8375;33.594;-117.718;2023-07-09T04:09:37;99823.59;;;18.77;81.14
16525;BME280;8375;33.594;-117.718;2023-07-09T04:12:07;99803.19;;;18.80;81.10
16525;BME280;8375;33.594;-117.718;2023-07-09T04:14:38;99817.50;;;18.77;81.77
16525;BME280;8375;33.594;-117.718;2023-07-09T04:17:07;99813.78;;;18.71;82.15
16525;BME280;8375;33.594;-117.718;2023-07-09T04:19:35;99811.97;;;18.72;82.21
16525;BME280;8375;33.594;-117.718;2023-07-09T04:22:05;99815.78;;;18.69;82.02
16525;BME280;8375;33.594;-117.718;2023-07-09T04:24:33;99827.09;;;18.70;82.40
16525;BME280;8375;33.594;-117.718;2023-07-09T04:27:02;99822.69;;;18.70;82.82
16525;BME280;8375;33.594;-117.718;2023-07-09T04:29:32;99820.13;;;18.62;82.59
16525;BME280;8375;33.594;-117.718;2023-07-09T04:32:04;99818.56;;;18.53;82.72
16525;BME280;8375;33.594;-117.718;2023-07-09T04:34:33;99821.81;;;18.40;83.12
16525;BME280;8375;33.594;-117.718;2023-07-09T04:37:02;99835.03;;;18.31;83.76
16525;BME280;8375;33.594;-117.718;2023-07-09T04:39:30;99822.13;;;18.22;84.36
16525;BME280;8375;33.594;-117.718;2023-07-09T04:42:00;99830.06;;;18.13;85.17
16525;BME280;8375;33.594;-117.718;2023-07-09T04:44:29;99831.41;;;18.09;85.72
16525;BME280;8375;33.594;-117.718;2023-07-09T04:46:57;99828.06;;;18.00;86.36
16525;BME280;8375;33.594;-117.718;2023-07-09T04:49:28;99831.34;;;17.94;86.76
16525;BME280;8375;33.594;-117.718;2023-07-09T04:51:56;99837.94;;;17.90;86.99
16525;BME280;8375;33.594;-117.718;2023-07-09T04:54:25;99832.81;;;17.73;88.58
16525;BME280;8375;33.594;-117.718;2023-07-09T04:56:54;99847.91;;;17.71;88.69
16525;BME280;8375;33.594;-117.718;2023-07-09T04:59:23;99844.00;;;17.67;89.45
16525;BME280;8375;33.594;-117.718;2023-07-09T05:01:52;99841.75;;;17.56;90.44
16525;BME280;8375;33.594;-117.718;2023-07-09T05:04:20;99845.03;;;17.58;89.94
16525;BME280;8375;33.594;-117.718;2023-07-09T05:06:51;99851.44;;;17.55;90.73
16525;BME280;8375;33.594;-117.718;2023-07-09T05:09:19;99854.94;;;17.48;91.19
16525;BME280;8375;33.594;-117.718;2023-07-09T05:11:48;99846.41;;;17.45;91.36
16525;BME280;8375;33.594;-117.718;2023-07-09T05:14:19;99850.03;;;17.44;91.51
16525;BME280;8375;33.594;-117.718;2023-07-09T05:16:48;99856.41;;;17.42;92.20
16525;BME280;8375;33.594;-117.718;2023-07-09T05:19:17;99866.59;;;17.37;92.52
16525;BME280;8375;33.594;-117.718;2023-07-09T05:21:46;99865.94;;;17.35;92.61
16525;BME280;8375;33.594;-117.718;2023-07-09T05:24:16;99867.44;;;17.37;92.51
16525;BME280;8375;33.594;-117.718;2023-07-09T05:26:45;99864.47;;;17.40;92.60
16525;BME280;8375;33.594;-117.718;2023-07-09T05:29:13;99868.22;;;17.38;92.72
16525;BME280;8375;33.594;-117.718;2023-07-09T05:31:42;99862.41;;;17.19;93.14
16525;BME280;8375;33.594;-117.718;2023-07-09T05:34:11;99861.75;;;17.17;93.47
16525;BME280;8375;33.594;-117.718;2023-07-09T05:36:40;99862.41;;;17.19;93.26
16525;BME280;8375;33.594;-117.718;2023-07-09T05:39:09;99868.16;;;17.23;93.55
16525;BME280;8375;33.594;-117.718;2023-07-09T05:41:39;99864.50;;;17.32;93.31
16525;BME280;8375;33.594;-117.718;2023-07-09T05:44:08;99867.44;;;17.37;92.74
16525;BME280;8375;33.594;-117.718;2023-07-09T05:46:37;99867.94;;;17.33;92.85
16525;BME280;8375;33.594;-117.718;2023-07-09T05:49:06;99864.53;;;17.24;93.26
16525;BME280;8375;33.594;-117.718;2023-07-09T05:51:35;99864.53;;;17.24;93.09
16525;BME280;8375;33.594;-117.718;2023-07-09T05:54:04;99867.00;;;17.17;94.07
16525;BME280;8375;33.594;-117.718;2023-07-09T05:56:33;99874.75;;;16.94;95.31
16525;BME280;8375;33.594;-117.718;2023-07-09T05:59:03;99871.16;;;16.95;95.24
16525;BME280;8375;33.594;-117.718;2023-07-09T06:01:32;99871.50;;;17.00;95.31
16525;BME280;8375;33.594;-117.718;2023-07-09T06:04:01;99874.25;;;17.07;95.32
16525;BME280;8375;33.594;-117.718;2023-07-09T06:06:30;99877.38;;;17.10;94.91
16525;BME280;8375;33.594;-117.718;2023-07-09T06:08:58;99871.59;;;17.15;94.92
16525;BME280;8375;33.594;-117.718;2023-07-09T06:11:27;99875.19;;;17.22;94.61
16525;BME280;8375;33.594;-117.718;2023-07-09T06:13:56;99878.31;;;17.26;94.26
16525;BME280;8375;33.594;-117.718;2023-07-09T06:16:26;99868.91;;;17.32;94.17
16525;BME280;8375;33.594;-117.718;2023-07-09T06:18:55;99867.59;;;17.36;93.57
16525;BME280;8375;33.594;-117.718;2023-07-09T06:21:24;99873.19;;;17.33;93.31
16525;BME280;8375;33.594;-117.718;2023-07-09T06:23:52;99875.50;;;17.27;93.16
16525;BME280;8375;33.594;-117.718;2023-07-09T06:26:21;99879.13;;;17.18;93.91
16525;BME280;8375;33.594;-117.718;2023-07-09T06:28:50;99878.19;;;17.03;95.13
16525;BME280;8375;33.594;-117.718;2023-07-09T06:31:18;99867.72;;;16.86;96.68
16525;BME280;8375;33.594;-117.718;2023-07-09T06:33:49;99871.53;;;16.75;97.55
16525;BME280;8375;33.594;-117.718;2023-07-09T06:36:18;99873.97;;;16.77;97.23
16525;BME280;8375;33.594;-117.718;2023-07-09T06:38:47;99872.31;;;16.84;96.96
16525;BME280;8375;33.594;-117.718;2023-07-09T06:41:16;99868.59;;;16.70;96.32
16525;BME280;8375;33.594;-117.718;2023-07-09T06:43:45;99880.38;;;16.74;96.66
16525;BME280;8375;33.594;-117.718;2023-07-09T06:46:14;99880.38;;;16.74;96.88
16525;BME280;8375;33.594;-117.718;2023-07-09T06:48:43;99882.34;;;16.72;96.63
16525;BME280;8375;33.594;-117.718;2023-07-09T06:51:13;99883.00;;;16.66;97.17
16525;BME280;8375;33.594;-117.718;2023-07-09T06:53:43;99893.16;;;16.52;97.54
16525;BME280;8375;33.594;-117.718;2023-07-09T06:56:14;99898.06;;;16.47;98.29
16525;BME280;8375;33.594;-117.718;2023-07-09T06:58:43;99893.63;;;16.39;98.54
16525;BME280;8375;33.594;-117.718;2023-07-09T07:01:12;99891.03;;;16.31;98.62
16525;BME280;8375;33.594;-117.718;2023-07-09T07:03:41;99889.38;;;16.30;98.85
16525;BME280;8375;33.594;-117.718;2023-07-09T07:06:10;99890.88;;;16.33;98.83
16525;BME280;8375;33.594;-117.718;2023-07-09T07:08:40;99891.84;;;16.32;99.22
16525;BME280;8375;33.594;-117.718;2023-07-09T07:11:09;99896.59;;;16.28;99.33
16525;BME280;8375;33.594;-117.718;2023-07-09T07:13:39;99898.53;;;16.26;99.51
16525;BME280;8375;33.594;-117.718;2023-07-09T07:16:10;99899.06;;;16.30;99.95
16525;BME280;8375;33.594;-117.718;2023-07-09T07:18:40;99904.63;;;16.26;99.95
16525;BME280;8375;33.594;-117.718;2023-07-09T07:21:09;99899.53;;;16.25;100.00
16525;BME280;8375;33.594;-117.718;2023-07-09T07:23:40;99908.88;;;16.36;99.78
16525;BME280;8375;33.594;-117.718;2023-07-09T07:26:08;99908.38;;;16.32;100.00
16525;BME280;8375;33.594;-117.718;2023-07-09T07:28:37;99906.72;;;16.31;99.40
16525;BME280;8375;33.594;-117.718;2023-07-09T07:31:08;99904.09;;;16.23;100.00
16525;BME280;8375;33.594;-117.718;2023-07-09T07:33:38;99906.25;;;16.11;100.00
16525;BME280;8375;33.594;-117.718;2023-07-09T07:36:08;99910.50;;;16.20;100.00
16525;BME280;8375;33.594;-117.718;2023-07-09T07:38:36;99915.56;;;16.13;100.00
16525;BME280;8375;33.594;-117.718;2023-07-09T07:41:07;99906.56;;;16.16;100.00
16525;BME280;8375;33.594;-117.718;2023-07-09T07:43:36;99905.75;;;16.16;100.00
16525;BME280;8375;33.594;-117.718;2023-07-09T07:46:05;99908.84;;;16.11;100.00
16525;BME280;8375;33.594;-117.718;2023-07-09T07:48:34;99907.56;;;16.15;100.00
16525;BME280;8375;33.594;-117.718;2023-07-09T07:51:03;99904.91;;;16.07;100.00
16525;BME280;8375;33.594;-117.718;2023-07-09T07:53:32;99896.72;;;16.02;100.00
16525;BME280;8375;33.594;-117.718;2023-07-09T07:56:01;99895.09;;;16.01;100.00
16525;BME280;8375;33.594;-117.718;2023-07-09T07:58:31;99902.13;;;16.00;100.00
16525;BME280;8375;33.594;-117.718;2023-07-09T08:01:00;99903.63;;;16.11;100.00
16525;BME280;8375;33.594;-117.718;2023-07-09T08:03:29;99899.06;;;16.21;100.00
16525;BME280;8375;33.594;-117.718;2023-07-09T08:05:58;99908.53;;;16.31;100.00
16525;BME280;8375;33.594;-117.718;2023-07-09T08:08:27;99903.63;;;16.27;100.00
16525;BME280;8375;33.594;-117.718;2023-07-09T08:11:01;99898.53;;;16.26;100.00
16525;BME280;8375;33.594;-117.718;2023-07-09T08:13:33;99895.78;;;16.27;100.00
16525;BME280;8375;33.594;-117.718;2023-07-09T08:16:03;99897.09;;;16.23;100.00
16525;BME280;8375;33.594;-117.718;2023-07-09T08:18:31;99895.78;;;16.27;100.00
16525;BME280;8375;33.594;-117.718;2023-07-09T08:21:01;99903.44;;;16.21;100.00
16525;BME280;8375;33.594;-117.718;2023-07-09T08:23:30;99904.28;;;16.13;100.00
16525;BME280;8375;33.594;-117.718;2023-07-09T08:25:59;99910.81;;;16.17;100.00
16525;BME280;8375;33.594;-117.718;2023-07-09T08:28:30;99911.81;;;16.24;100.00
16525;BME280;8375;33.594;-117.718;2023-07-09T08:31:00;99908.69;;;16.21;100.00
16525;BME280;8375;33.594;-117.718;2023-07-09T08:33:30;99908.22;;;16.25;100.00
16525;BME280;8375;33.594;-117.718;2023-07-09T08:35:58;99912.16;;;16.30;100.00
16525;BME280;8375;33.594;-117.718;2023-07-09T08:38:27;99913.91;;;16.12;100.00
16525;BME280;8375;33.594;-117.718;2023-07-09T08:40:59;99915.06;;;16.10;100.00
16525;BME280;8375;33.594;-117.718;2023-07-09T08:43:39;99903.94;;;16.16;100.00
16525;BME280;8375;33.594;-117.718;2023-07-09T08:46:20;99911.47;;;16.11;100.00
16525;BME280;8375;33.594;-117.718;2023-07-09T08:48:54;99910.47;;;16.04;100.00
16525;BME280;8375;33.594;-117.718;2023-07-09T08:51:37;99907.66;;;15.97;100.00
16525;BME280;8375;33.594;-117.718;2023-07-09T08:54:12;99903.72;;;15.93;100.00
16525;BME280;8375;33.594;-117.718;2023-07-09T08:56:43;99899.34;;;15.93;100.00
16525;BME280;8375;33.594;-117.718;2023-07-09T08:59:14;99897.69;;;15.92;100.00
16525;BME280;8375;33.594;-117.718;2023-07-09T09:01:51;99893.03;;;15.86;100.00
16525;BME280;8375;33.594;-117.718;2023-07-09T09:04:25;99890.09;;;15.81;100.00
16525;BME280;8375;33.594;-117.718;2023-07-09T09:07:02;99897.28;;;15.79;100.00
16525;BME280;8375;33.594;-117.718;2023-07-09T09:09:39;99887.44;;;15.73;100.00
16525;BME280;8375;33.594;-117.718;2023-07-09T09:12:13;99879.94;;;15.78;100.00
16525;BME280;8375;33.594;-117.718;2023-07-09T09:14:46;99887.13;;;15.76;100.00
16525;BME280;8375;33.594;-117.718;2023-07-09T09:17:20;99892.69;;;15.81;100.00
16525;BME280;8375;33.594;-117.718;2023-07-09T09:19:53;99893.44;;;15.91;100.00
16525;BME280;8375;33.594;-117.718;2023-07-09T09:22:25;99895.00;;;15.84;100.00
16525;BME280;8375;33.594;-117.718;2023-07-09T09:25:02;99887.22;;;15.92;100.00
16525;BME280;8375;33.594;-117.718;2023-07-09T09:27:32;99892.13;;;15.95;100.00
16525;BME280;8375;33.594;-117.718;2023-07-09T09:30:00;99894.09;;;15.93;100.00
16525;BME280;8375;33.594;-117.718;2023-07-09T09:32:43;99891.16;;;15.96;100.00
16525;BME280;8375;33.594;-117.718;2023-07-09T09:35:13;99881.50;;;15.97;100.00
16525;BME280;8375;33.594;-117.718;2023-07-09T09:37:50;99877.56;;;15.93;100.00
16525;BME280;8375;33.594;-117.718;2023-07-09T09:40:20;99876.91;;;15.99;100.00
16525;BME280;8375;33.594;-117.718;2023-07-09T09:42:50;99884.38;;;15.86;100.00
16525;BME280;8375;33.594;-117.718;2023-07-09T09:45:25;99871.63;;;15.82;100.00
16525;BME280;8375;33.594;-117.718;2023-07-09T09:48:00;99871.09;;;15.79;100.00
16525;BME280;8375;33.594;-117.718;2023-07-09T09:50:32;99866.69;;;15.79;100.00
16525;BME280;8375;33.594;-117.718;2023-07-09T09:53:01;99856.72;;;15.83;100.00
16525;BME280;8375;33.594;-117.718;2023-07-09T09:55:30;99866.53;;;15.81;100.00
16525;BME280;8375;33.594;-117.718;2023-07-09T09:58:00;99859.72;;;15.88;100.00
16525;BME280;8375;33.594;-117.718;2023-07-09T10:00:30;99852.22;;;15.93;100.00
16525;BME280;8375;33.594;-117.718;2023-07-09T10:03:03;99859.56;;;15.98;100.00
16525;BME280;8375;33.594;-117.718;2023-07-09T10:05:40;99858.44;;;16.01;100.00
16525;BME280;8375;33.594;-117.718;2023-07-09T10:08:17;99861.38;;;15.97;100.00
16525;BME280;8375;33.594;-117.718;2023-07-09T10:10:50;99863.50;;;16.02;100.00
16525;BME280;8375;33.594;-117.718;2023-07-09T10:13:30;99859.91;;;15.95;100.00
16525;BME280;8375;33.594;-117.718;2023-07-09T10:16:06;99857.94;;;15.97;100.00
16525;BME280;8375;33.594;-117.718;2023-07-09T10:18:48;99863.50;;;16.02;100.00
16525;BME280;8375;33.594;-117.718;2023-07-09T10:21:25;99867.09;;;16.01;100.00
16525;BME280;8375;33.594;-117.718;2023-07-09T10:24:05;99867.91;;;15.93;100.00
16525;BME280;8375;33.594;-117.718;2023-07-09T10:26:40;99866.06;;;15.86;100.00
16525;BME280;8375;33.594;-117.718;2023-07-09T10:29:24;99865.38;;;15.75;100.00
16525;BME280;8375;33.594;-117.718;2023-07-09T10:32:07;99874.38;;;15.81;100.00
16525;BME280;8375;33.594;-117.718;2023-07-09T10:34:49;99873.25;;;15.83;100.00
16525;BME280;8375;33.594;-117.718;2023-07-09T10:37:43;99872.78;;;15.88;100.00
16525;BME280;8375;33.594;-117.718;2023-07-09T10:40:16;99881.66;;;15.95;100.00
16525;BME280;8375;33.594;-117.718;2023-07-09T10:42:50;99878.38;;;15.93;100.00
16525;BME280;8375;33.594;-117.718;2023-07-09T10:45:26;99875.94;;;16.00;100.00
16525;BME280;8375;33.594;-117.718;2023-07-09T10:47:59;99867.75;;;16.03;100.00
16525;BME280;8375;33.594;-117.718;2023-07-09T10:50:34;99874.81;;;16.11;100.00
16525;BME280;8375;33.594;-117.718;2023-07-09T10:53:09;99872.34;;;16.09;100.00
16525;BME280;8375;33.594;-117.718;2023-07-09T10:55:49;99874.47;;;15.97;100.00
16525;BME280;8375;33.594;-117.718;2023-07-09T10:58:27;99868.91;;;15.92;100.00
16525;BME280;8375;33.594;-117.718;2023-07-09T11:01:00;99868.59;;;15.95;100.00
16525;BME280;8375;33.594;-117.718;2023-07-09T11:03:38;99867.41;;;15.98;100.00
16525;BME280;8375;33.594;-117.718;2023-07-09T11:06:20;99871.34;;;16.02;100.00
16525;BME280;8375;33.594;-117.718;2023-07-09T11:08:52;99864.66;;;16.00;100.00
16525;BME280;8375;33.594;-117.718;2023-07-09T11:11:30;99867.91;;;15.93;100.00
16525;BME280;8375;33.594;-117.718;2023-07-09T11:14:04;99864.44;;;15.84;100.00
16525;BME280;8375;33.594;-117.718;2023-07-09T11:16:39;99864.66;;;15.91;100.00
16525;BME280;8375;33.594;-117.718;2023-07-09T11:19:14;99864.16;;;15.96;100.00
16525;BME280;8375;33.594;-117.718;2023-07-09T11:21:58;99861.34;;;15.89;100.00
16525;BME280;8375;33.594;-117.718;2023-07-09T11:24:32;99861.81;;;15.84;100.00
16525;BME280;8375;33.594;-117.718;2023-07-09T11:27:00;99873.41;;;15.82;100.00
16525;BME280;8375;33.594;-117.718;2023-07-09T11:29:29;99881.09;;;15.75;100.00
16525;BME280;8375;33.594;-117.718;2023-07-09T11:32:08;99884.38;;;15.77;100.00
16525;BME280;8375;33.594;-117.718;2023-07-09T11:34:45;99884.38;;;15.77;100.00
16525;BME280;8375;33.594;-117.718;2023-07-09T11:37:17;99885.00;;;15.71;100.00
16525;BME280;8375;33.594;-117.718;2023-07-09T11:39:47;99891.53;;;15.67;100.00
16525;BME280;8375;33.594;-117.718;2023-07-09T11:42:28;99893.31;;;15.66;100.00
16525;BME280;8375;33.594;-117.718;2023-07-09T11:45:06;99894.78;;;15.61;100.00
16525;BME280;8375;33.594;-117.718;2023-07-09T11:47:38;99895.94;;;15.66;100.00
16525;BME280;8375;33.594;-117.718;2023-07-09T11:50:20;99898.88;;;15.63;100.00
16525;BME280;8375;33.594;-117.718;2023-07-09T11:52:55;99900.50;;;15.64;100.00
16525;BME280;8375;33.594;-117.718;2023-07-09T11:55:37;99901.19;;;15.75;100.00
16525;BME280;8375;33.594;-117.718;2023-07-09T11:58:09;99911.53;;;15.84;100.00
16525;BME280;8375;33.594;-117.718;2023-07-09T12:00:39;99917.00;;;15.91;100.00
16525;BME280;8375;33.594;-117.718;2023-07-09T12:03:18;99923.88;;;15.92;100.00
16525;BME280;8375;33.594;-117.718;2023-07-09T12:05:51;99923.56;;;15.95;100.00
16525;BME280;8375;33.594;-117.718;2023-07-09T12:08:26;99926.66;;;15.99;100.00
16525;BME280;8375;33.594;-117.718;2023-07-09T12:10:55;99932.38;;;15.94;100.00
16525;BME280;8375;33.594;-117.718;2023-07-09T12:13:24;99932.06;;;15.97;100.00
16525;BME280;8375;33.594;-117.718;2023-07-09T12:15:53;99938.59;;;15.93;100.00
16525;BME280;8375;33.594;-117.718;2023-07-09T12:18:21;99935.81;;;15.95;100.00
16525;BME280;8375;33.594;-117.718;2023-07-09T12:20:52;99945.81;;;16.00;100.00
16525;BME280;8375;33.594;-117.718;2023-07-09T12:23:26;99942.53;;;15.97;100.00
16525;BME280;8375;33.594;-117.718;2023-07-09T12:25:59;99943.66;;;15.95;100.00
16525;BME280;8375;33.594;-117.718;2023-07-09T12:28:29;99951.81;;;15.92;100.00
16525;BME280;8375;33.594;-117.718;2023-07-09T12:30:58;99947.34;;;15.84;100.00
16525;BME280;8375;33.594;-117.718;2023-07-09T12:33:27;99950.94;;;15.83;100.00
16525;BME280;8375;33.594;-117.718;2023-07-09T12:35:58;99956.47;;;15.80;100.00
16525;BME280;8375;33.594;-117.718;2023-07-09T12:38:31;99961.56;;;15.81;100.00
16525;BME280;8375;33.594;-117.718;2023-07-09T12:41:08;99963.59;;;15.88;100.00
16525;BME280;8375;33.594;-117.718;2023-07-09T12:43:45;99963.69;;;15.86;100.00
16525;BME280;8375;33.594;-117.718;2023-07-09T12:46:14;99965.38;;;15.87;100.00
16525;BME280;8375;33.594;-117.718;2023-07-09T12:48:44;99971.13;;;15.91;100.00
16525;BME280;8375;33.594;-117.718;2023-07-09T12:51:18;99970.59;;;15.87;100.00
16525;BME280;8375;33.594;-117.718;2023-07-09T12:54:03;99971.28;;;15.89;100.00
16525;BME280;8375;33.594;-117.718;2023-07-09T12:56:38;99978.47;;;15.87;100.00